sensor_id;sensor_type;location;lat;lon;timestamp;pressure;altitude;pressure_sealevel;temperature
69420;BMP280;56612;52.030;113.524;2022-09-01T00:02:12;92970.47;;;14.68
69420;BMP280;56612;52.030;113.524;2022-09-01T00:05:18;92969.75;;;14.76
69420;BMP280;56612;52.030;113.524;2022-09-01T00:08:22;92973.03;;;14.87
69420;BMP280;56612;52.030;113.524;2022-09-01T00:11:28;92977.03;;;14.96
69420;BMP280;56612;52.030;113.524;2022-09-01T00:14:33;92968.91;;;15.06
69420;BMP280;56612;52.030;113.524;2022-09-01T00:17:43;92978.31;;;15.11
69420;BMP280;56612;52.030;113.524;2022-09-01T00:20:46;92968.84;;;15.16
69420;BMP280;56612;52.030;113.524;2022-09-01T00:23:50;92973.47;;;15.24
69420;BMP280;56612;52.030;113.524;2022-09-01T00:26:55;92968.06;;;15.28
69420;BMP280;56612;52.030;113.524;2022-09-01T00:29:59;92965.38;;;15.32
69420;BMP280;56612;52.030;113.524;2022-09-01T00:33:04;92958.56;;;15.41
69420;BMP280;56612;52.030;113.524;2022-09-01T00:36:07;92961.16;;;15.49
69420;BMP280;56612;52.030;113.524;2022-09-01T00:39:12;92955.72;;;15.61
69420;BMP280;56612;52.030;113.524;2022-09-01T00:42:15;92956.91;;;15.76
69420;BMP280;56612;52.030;113.524;2022-09-01T00:45:20;92939.25;;;15.90
69420;BMP280;56612;52.030;113.524;2022-09-01T00:48:24;92939.81;;;16.02
69420;BMP280;56612;52.030;113.524;2022-09-01T00:51:30;92928.81;;;16.20
69420;BMP280;56612;52.030;113.524;2022-09-01T00:54:39;92939.38;;;16.39
69420;BMP280;56612;52.030;113.524;2022-09-01T00:57:44;92924.31;;;16.58
69420;BMP280;56612;52.030;113.524;2022-09-01T01:00:50;92928.66;;;16.84
69420;BMP280;56612;52.030;113.524;2022-09-01T01:03:55;92919.66;;;17.00
69420;BMP280;56612;52.030;113.524;2022-09-01T01:07:00;92933.31;;;17.33
69420;BMP280;56612;52.030;113.524;2022-09-01T01:10:06;92921.31;;;17.64
69420;BMP280;56612;52.030;113.524;2022-09-01T01:13:13;92922.81;;;17.92
69420;BMP280;56612;52.030;113.524;2022-09-01T01:16:18;92930.75;;;18.02
69420;BMP280;56612;52.030;113.524;2022-09-01T01:19:30;92930.19;;;18.31
69420;BMP280;56612;52.030;113.524;2022-09-01T01:22:59;92922.19;;;18.56
69420;BMP280;56612;52.030;113.524;2022-09-01T01:26:10;92926.09;;;18.94
69420;BMP280;56612;52.030;113.524;2022-09-01T01:29:15;92926.00;;;19.27
69420;BMP280;56612;52.030;113.524;2022-09-01T01:32:20;92924.00;;;19.79
69420;BMP280;56612;52.030;113.524;2022-09-01T01:35:24;92913.34;;;20.45
69420;BMP280;56612;52.030;113.524;2022-09-01T01:38:28;92913.50;;;21.05
69420;BMP280;56612;52.030;113.524;2022-09-01T01:41:34;92905.28;;;21.49
69420;BMP280;56612;52.030;113.524;2022-09-01T01:44:38;92912.41;;;21.79
69420;BMP280;56612;52.030;113.524;2022-09-01T01:47:44;92916.06;;;21.72
69420;BMP280;56612;52.030;113.524;2022-09-01T01:51:00;92906.50;;;21.73
69420;BMP280;56612;52.030;113.524;2022-09-01T01:54:05;92904.03;;;22.04
69420;BMP280;56612;52.030;113.524;2022-09-01T01:57:09;92901.81;;;22.46
69420;BMP280;56612;52.030;113.524;2022-09-01T02:00:18;92897.56;;;22.85
69420;BMP280;56612;52.030;113.524;2022-09-01T02:03:33;92907.78;;;23.03
69420;BMP280;56612;52.030;113.524;2022-09-01T02:06:42;92904.03;;;23.27
69420;BMP280;56612;52.030;113.524;2022-09-01T02:09:49;92895.63;;;23.96
69420;BMP280;56612;52.030;113.524;2022-09-01T02:12:58;92893.63;;;24.55
69420;BMP280;56612;52.030;113.524;2022-09-01T02:16:07;92880.59;;;24.85
69420;BMP280;56612;52.030;113.524;2022-09-01T02:19:15;92889.25;;;24.89
69420;BMP280;56612;52.030;113.524;2022-09-01T02:22:23;92875.22;;;24.83
69420;BMP280;56612;52.030;113.524;2022-09-01T02:25:27;92878.00;;;25.38
69420;BMP280;56612;52.030;113.524;2022-09-01T02:28:33;92883.47;;;25.38
69420;BMP280;56612;52.030;113.524;2022-09-01T02:31:39;92872.50;;;24.24
69420;BMP280;56612;52.030;113.524;2022-09-01T02:34:44;92874.69;;;23.76
69420;BMP280;56612;52.030;113.524;2022-09-01T02:37:56;92870.84;;;23.71
69420;BMP280;56612;52.030;113.524;2022-09-01T02:41:02;92855.69;;;25.18
69420;BMP280;56612;52.030;113.524;2022-09-01T02:44:07;92859.19;;;24.89
69420;BMP280;56612;52.030;113.524;2022-09-01T02:47:14;92851.44;;;25.49
69420;BMP280;56612;52.030;113.524;2022-09-01T02:50:19;92851.06;;;25.42
69420;BMP280;56612;52.030;113.524;2022-09-01T02:53:25;92853.50;;;24.52
69420;BMP280;56612;52.030;113.524;2022-09-01T02:56:29;92852.19;;;24.21
69420;BMP280;56612;52.030;113.524;2022-09-01T02:59:33;92842.22;;;25.42
69420;BMP280;56612;52.030;113.524;2022-09-01T03:02:49;92836.06;;;27.50
69420;BMP280;56612;52.030;113.524;2022-09-01T03:05:57;92832.88;;;28.13
69420;BMP280;56612;52.030;113.524;2022-09-01T03:09:04;92834.63;;;28.93
69420;BMP280;56612;52.030;113.524;2022-09-01T03:12:08;92836.81;;;28.90
69420;BMP280;56612;52.030;113.524;2022-09-01T03:15:12;92838.00;;;29.04
69420;BMP280;56612;52.030;113.524;2022-09-01T03:18:16;92834.94;;;29.89
69420;BMP280;56612;52.030;113.524;2022-09-01T03:21:22;92825.00;;;29.54
69420;BMP280;56612;52.030;113.524;2022-09-01T03:24:25;92817.06;;;29.69
69420;BMP280;56612;52.030;113.524;2022-09-01T03:27:30;92816.13;;;29.72
69420;BMP280;56612;52.030;113.524;2022-09-01T03:30:35;92809.88;;;30.12
69420;BMP280;56612;52.030;113.524;2022-09-01T03:33:43;92822.25;;;29.54
69420;BMP280;56612;52.030;113.524;2022-09-01T03:36:55;92807.38;;;29.40
69420;BMP280;56612;52.030;113.524;2022-09-01T03:40:03;92815.00;;;28.57
69420;BMP280;56612;52.030;113.524;2022-09-01T03:43:08;92811.03;;;29.66
69420;BMP280;56612;52.030;113.524;2022-09-01T03:46:16;92798.75;;;29.84
69420;BMP280;56612;52.030;113.524;2022-09-01T03:49:25;92779.75;;;29.21
69420;BMP280;56612;52.030;113.524;2022-09-01T03:52:31;92783.66;;;28.83
69420;BMP280;56612;52.030;113.524;2022-09-01T03:55:35;92772.84;;;29.11
69420;BMP280;56612;52.030;113.524;2022-09-01T03:58:42;92780.41;;;28.81
69420;BMP280;56612;52.030;113.524;2022-09-01T04:01:51;92773.75;;;29.48
69420;BMP280;56612;52.030;113.524;2022-09-01T04:04:55;92779.28;;;29.08
69420;BMP280;56612;52.030;113.524;2022-09-01T04:08:05;92769.13;;;30.32
69420;BMP280;56612;52.030;113.524;2022-09-01T04:11:14;92766.72;;;30.37
69420;BMP280;56612;52.030;113.524;2022-09-01T04:14:22;92757.81;;;30.36
69420;BMP280;56612;52.030;113.524;2022-09-01T04:17:31;92753.91;;;28.86
69420;BMP280;56612;52.030;113.524;2022-09-01T04:20:56;92756.03;;;28.75
69420;BMP280;56612;52.030;113.524;2022-09-01T04:24:00;92753.97;;;28.22
69420;BMP280;56612;52.030;113.524;2022-09-01T04:27:07;92752.16;;;28.29
69420;BMP280;56612;52.030;113.524;2022-09-01T04:30:13;92754.75;;;28.53
69420;BMP280;56612;52.030;113.524;2022-09-01T04:33:21;92754.78;;;28.42
69420;BMP280;56612;52.030;113.524;2022-09-01T04:36:29;92744.31;;;28.23
69420;BMP280;56612;52.030;113.524;2022-09-01T04:39:36;92732.88;;;28.72
69420;BMP280;56612;52.030;113.524;2022-09-01T04:42:42;92724.81;;;28.38
69420;BMP280;56612;52.030;113.524;2022-09-01T04:45:47;92734.88;;;28.10
69420;BMP280;56612;52.030;113.524;2022-09-01T04:48:54;92723.34;;;27.96
69420;BMP280;56612;52.030;113.524;2022-09-01T04:52:00;92717.47;;;28.03
69420;BMP280;56612;52.030;113.524;2022-09-01T04:55:04;92716.66;;;27.62
69420;BMP280;56612;52.030;113.524;2022-09-01T04:58:09;92712.34;;;27.65
69420;BMP280;56612;52.030;113.524;2022-09-01T05:01:20;92712.59;;;27.61
69420;BMP280;56612;52.030;113.524;2022-09-01T05:04:26;92713.81;;;27.85
69420;BMP280;56612;52.030;113.524;2022-09-01T05:07:31;92715.25;;;27.94
69420;BMP280;56612;52.030;113.524;2022-09-01T05:10:42;92696.94;;;28.12
69420;BMP280;56612;52.030;113.524;2022-09-01T05:13:52;92699.50;;;28.67
69420;BMP280;56612;52.030;113.524;2022-09-01T05:16:59;92692.19;;;29.23
69420;BMP280;56612;52.030;113.524;2022-09-01T05:20:05;92692.44;;;29.30
69420;BMP280;56612;52.030;113.524;2022-09-01T05:23:10;92691.16;;;28.88
69420;BMP280;56612;52.030;113.524;2022-09-01T05:26:27;92687.72;;;29.28
69420;BMP280;56612;52.030;113.524;2022-09-01T05:29:32;92683.31;;;29.42
69420;BMP280;56612;52.030;113.524;2022-09-01T05:32:37;92691.06;;;29.59
69420;BMP280;56612;52.030;113.524;2022-09-01T05:35:55;92679.81;;;29.91
69420;BMP280;56612;52.030;113.524;2022-09-01T05:39:04;92677.19;;;29.61
69420;BMP280;56612;52.030;113.524;2022-09-01T05:42:08;92667.69;;;29.96
69420;BMP280;56612;52.030;113.524;2022-09-01T05:45:13;92658.19;;;29.08
69420;BMP280;56612;52.030;113.524;2022-09-01T05:48:23;92677.78;;;30.00
69420;BMP280;56612;52.030;113.524;2022-09-01T05:51:29;92692.03;;;32.49
69420;BMP280;56612;52.030;113.524;2022-09-01T05:54:56;92670.78;;;33.74
69420;BMP280;56612;52.030;113.524;2022-09-01T05:58:03;92669.97;;;34.67
69420;BMP280;56612;52.030;113.524;2022-09-01T06:01:08;92667.59;;;31.16
69420;BMP280;56612;52.030;113.524;2022-09-01T06:04:15;92677.84;;;30.36
69420;BMP280;56612;52.030;113.524;2022-09-01T06:07:19;92661.41;;;32.10
69420;BMP280;56612;52.030;113.524;2022-09-01T06:10:29;92670.50;;;31.22
69420;BMP280;56612;52.030;113.524;2022-09-01T06:13:33;92651.97;;;29.18
69420;BMP280;56612;52.030;113.524;2022-09-01T06:16:37;92663.41;;;29.12
69420;BMP280;56612;52.030;113.524;2022-09-01T06:19:42;92665.28;;;28.24
69420;BMP280;56612;52.030;113.524;2022-09-01T06:22:46;92653.03;;;29.42
69420;BMP280;56612;52.030;113.524;2022-09-01T06:25:51;92649.41;;;28.75
69420;BMP280;56612;52.030;113.524;2022-09-01T06:28:59;92662.09;;;27.45
69420;BMP280;56612;52.030;113.524;2022-09-01T06:32:06;92661.13;;;27.17
69420;BMP280;56612;52.030;113.524;2022-09-01T06:35:13;92653.78;;;28.11
69420;BMP280;56612;52.030;113.524;2022-09-01T06:38:20;92648.94;;;27.79
69420;BMP280;56612;52.030;113.524;2022-09-01T06:41:24;92653.13;;;28.10
69420;BMP280;56612;52.030;113.524;2022-09-01T06:44:28;92660.06;;;29.30
69420;BMP280;56612;52.030;113.524;2022-09-01T06:47:43;92656.75;;;30.33
69420;BMP280;56612;52.030;113.524;2022-09-01T06:50:48;92660.69;;;30.89
69420;BMP280;56612;52.030;113.524;2022-09-01T06:54:12;92647.63;;;30.62
69420;BMP280;56612;52.030;113.524;2022-09-01T06:57:17;92647.16;;;31.47
69420;BMP280;56612;52.030;113.524;2022-09-01T07:00:42;92639.94;;;32.19
69420;BMP280;56612;52.030;113.524;2022-09-01T07:03:51;92643.25;;;31.53
69420;BMP280;56612;52.030;113.524;2022-09-01T07:07:02;92646.81;;;30.55
69420;BMP280;56612;52.030;113.524;2022-09-01T07:11:00;92632.78;;;30.93
69420;BMP280;56612;52.030;113.524;2022-09-01T07:14:24;92635.78;;;31.68
69420;BMP280;56612;52.030;113.524;2022-09-01T07:17:28;92640.47;;;31.87
69420;BMP280;56612;52.030;113.524;2022-09-01T07:20:34;92636.69;;;32.08
69420;BMP280;56612;52.030;113.524;2022-09-01T07:24:02;92642.25;;;31.99
69420;BMP280;56612;52.030;113.524;2022-09-01T07:27:24;92634.91;;;32.13
69420;BMP280;56612;52.030;113.524;2022-09-01T07:30:51;92639.03;;;31.80
69420;BMP280;56612;52.030;113.524;2022-09-01T07:34:01;92644.06;;;31.51
69420;BMP280;56612;52.030;113.524;2022-09-01T07:37:26;92630.56;;;31.82
69420;BMP280;56612;52.030;113.524;2022-09-01T07:40:51;92635.41;;;31.98
69420;BMP280;56612;52.030;113.524;2022-09-01T07:44:33;92644.28;;;33.84
69420;BMP280;56612;52.030;113.524;2022-09-01T07:48:06;92631.34;;;32.88
69420;BMP280;56612;52.030;113.524;2022-09-01T07:51:20;92627.16;;;31.81
69420;BMP280;56612;52.030;113.524;2022-09-01T07:54:41;92634.78;;;31.72
69420;BMP280;56612;52.030;113.524;2022-09-01T07:57:45;92626.03;;;31.69
69420;BMP280;56612;52.030;113.524;2022-09-01T08:00:52;92633.97;;;31.82
69420;BMP280;56612;52.030;113.524;2022-09-01T08:03:59;92641.28;;;32.52
69420;BMP280;56612;52.030;113.524;2022-09-01T08:07:04;92641.63;;;32.81
69420;BMP280;56612;52.030;113.524;2022-09-01T08:10:08;92624.75;;;32.67
69420;BMP280;56612;52.030;113.524;2022-09-01T08:13:14;92646.31;;;31.23
69420;BMP280;56612;52.030;113.524;2022-09-01T08:16:21;92645.09;;;32.96
69420;BMP280;56612;52.030;113.524;2022-09-01T08:19:27;92630.47;;;32.24
69420;BMP280;56612;52.030;113.524;2022-09-01T08:22:57;92640.88;;;33.45
69420;BMP280;56612;52.030;113.524;2022-09-01T08:26:08;92639.72;;;34.56
69420;BMP280;56612;52.030;113.524;2022-09-01T08:29:12;92633.81;;;32.42
69420;BMP280;56612;52.030;113.524;2022-09-01T08:32:17;92634.47;;;31.07
69420;BMP280;56612;52.030;113.524;2022-09-01T08:35:22;92623.88;;;31.87
69420;BMP280;56612;52.030;113.524;2022-09-01T08:38:27;92636.09;;;31.39
69420;BMP280;56612;52.030;113.524;2022-09-01T08:41:44;92631.16;;;32.49
69420;BMP280;56612;52.030;113.524;2022-09-01T08:48:16;92634.59;;;35.61
69420;BMP280;56612;52.030;113.524;2022-09-01T08:51:47;92625.53;;;34.30
69420;BMP280;56612;52.030;113.524;2022-09-01T08:55:02;92632.75;;;34.64
69420;BMP280;56612;52.030;113.524;2022-09-01T08:58:11;92640.03;;;36.11
69420;BMP280;56612;52.030;113.524;2022-09-01T09:08:47;92667.31;;;33.59
69420;BMP280;56612;52.030;113.524;2022-09-01T09:11:59;92650.59;;;35.32
69420;BMP280;56612;52.030;113.524;2022-09-01T09:21:45;92633.66;;;31.26
69420;BMP280;56612;52.030;113.524;2022-09-01T09:24:54;92634.47;;;31.16
69420;BMP280;56612;52.030;113.524;2022-09-01T09:28:00;92631.97;;;29.86
69420;BMP280;56612;52.030;113.524;2022-09-01T09:31:27;92641.41;;;29.12
69420;BMP280;56612;52.030;113.524;2022-09-01T09:34:40;92649.38;;;29.35
69420;BMP280;56612;52.030;113.524;2022-09-01T09:37:44;92639.78;;;28.96
69420;BMP280;56612;52.030;113.524;2022-09-01T09:41:04;92650.00;;;28.67
69420;BMP280;56612;52.030;113.524;2022-09-01T09:44:27;92657.25;;;31.59
69420;BMP280;56612;52.030;113.524;2022-09-01T09:50:45;92652.72;;;34.88
69420;BMP280;56612;52.030;113.524;2022-09-01T09:53:52;92663.25;;;31.36
69420;BMP280;56612;52.030;113.524;2022-09-01T09:57:12;92659.91;;;32.19
69420;BMP280;56612;52.030;113.524;2022-09-01T10:00:29;92659.47;;;34.00
69420;BMP280;56612;52.030;113.524;2022-09-01T10:03:44;92669.41;;;34.73
69420;BMP280;56612;52.030;113.524;2022-09-01T10:06:47;92660.69;;;33.08
69420;BMP280;56612;52.030;113.524;2022-09-01T10:09:53;92660.03;;;33.32
69420;BMP280;56612;52.030;113.524;2022-09-01T10:13:00;92667.38;;;33.50
69420;BMP280;56612;52.030;113.524;2022-09-01T10:16:15;92668.78;;;33.97
69420;BMP280;56612;52.030;113.524;2022-09-01T10:19:24;92663.19;;;33.66
69420;BMP280;56612;52.030;113.524;2022-09-01T10:22:38;92667.28;;;33.44
69420;BMP280;56612;52.030;113.524;2022-09-01T10:25:48;92669.75;;;33.39
69420;BMP280;56612;52.030;113.524;2022-09-01T10:29:06;92670.13;;;32.79
69420;BMP280;56612;52.030;113.524;2022-09-01T10:32:33;92664.69;;;31.87
69420;BMP280;56612;52.030;113.524;2022-09-01T10:35:52;92668.44;;;31.40
69420;BMP280;56612;52.030;113.524;2022-09-01T10:38:56;92665.66;;;30.33
69420;BMP280;56612;52.030;113.524;2022-09-01T10:42:16;92674.47;;;28.71
69420;BMP280;56612;52.030;113.524;2022-09-01T10:45:31;92674.31;;;27.90
69420;BMP280;56612;52.030;113.524;2022-09-01T10:48:36;92675.19;;;27.11
69420;BMP280;56612;52.030;113.524;2022-09-01T10:51:57;92676.97;;;26.70
69420;BMP280;56612;52.030;113.524;2022-09-01T10:55:18;92677.56;;;26.36
69420;BMP280;56612;52.030;113.524;2022-09-01T11:02:22;92678.25;;;25.75
69420;BMP280;56612;52.030;113.524;2022-09-01T11:06:02;92683.97;;;25.59
69420;BMP280;56612;52.030;113.524;2022-09-01T11:09:39;92673.47;;;25.38
69420;BMP280;56612;52.030;113.524;2022-09-01T11:16:41;92689.28;;;24.98
69420;BMP280;56612;52.030;113.524;2022-09-01T11:20:22;92696.91;;;24.82
69420;BMP280;56612;52.030;113.524;2022-09-01T11:23:29;92695.75;;;24.65
69420;BMP280;56612;52.030;113.524;2022-09-01T11:30:14;92702.34;;;24.28
69420;BMP280;56612;52.030;113.524;2022-09-01T11:33:37;92709.28;;;24.12
69420;BMP280;56612;52.030;113.524;2022-09-01T11:36:51;92706.38;;;24.01
69420;BMP280;56612;52.030;113.524;2022-09-01T11:39:58;92711.03;;;23.88
69420;BMP280;56612;52.030;113.524;2022-09-01T11:43:10;92710.81;;;23.80
69420;BMP280;56612;52.030;113.524;2022-09-01T11:46:26;92717.56;;;23.66
69420;BMP280;56612;52.030;113.524;2022-09-01T11:49:38;92721.91;;;23.61
69420;BMP280;56612;52.030;113.524;2022-09-01T11:53:01;92726.38;;;23.52
69420;BMP280;56612;52.030;113.524;2022-09-01T11:56:17;92724.78;;;23.42
69420;BMP280;56612;52.030;113.524;2022-09-01T11:59:33;92728.53;;;23.35
69420;BMP280;56612;52.030;113.524;2022-09-01T12:02:49;92733.84;;;23.22
69420;BMP280;56612;52.030;113.524;2022-09-01T12:06:03;92737.78;;;23.10
69420;BMP280;56612;52.030;113.524;2022-09-01T12:09:08;92746.47;;;22.98
69420;BMP280;56612;52.030;113.524;2022-09-01T12:12:44;92744.75;;;22.91
69420;BMP280;56612;52.030;113.524;2022-09-01T12:15:58;92749.13;;;22.84
69420;BMP280;56612;52.030;113.524;2022-09-01T12:19:25;92751.13;;;22.68
69420;BMP280;56612;52.030;113.524;2022-09-01T12:22:29;92757.31;;;22.50
69420;BMP280;56612;52.030;113.524;2022-09-01T12:25:33;92762.50;;;22.39
69420;BMP280;56612;52.030;113.524;2022-09-01T12:28:38;92751.69;;;22.37
69420;BMP280;56612;52.030;113.524;2022-09-01T12:31:46;92759.53;;;22.29
69420;BMP280;56612;52.030;113.524;2022-09-01T12:35:01;92755.56;;;22.26
69420;BMP280;56612;52.030;113.524;2022-09-01T12:38:30;92753.72;;;22.20
69420;BMP280;56612;52.030;113.524;2022-09-01T12:41:38;92753.47;;;22.10
69420;BMP280;56612;52.030;113.524;2022-09-01T12:47:49;92761.00;;;21.90
69420;BMP280;56612;52.030;113.524;2022-09-01T12:50:53;92767.44;;;21.83
69420;BMP280;56612;52.030;113.524;2022-09-01T12:53:59;92772.34;;;21.78
69420;BMP280;56612;52.030;113.524;2022-09-01T12:57:07;92775.44;;;21.68
69420;BMP280;56612;52.030;113.524;2022-09-01T13:03:17;92777.41;;;21.51
69420;BMP280;56612;52.030;113.524;2022-09-01T13:06:23;92784.50;;;21.44
69420;BMP280;56612;52.030;113.524;2022-09-01T13:09:28;92790.78;;;21.38
69420;BMP280;56612;52.030;113.524;2022-09-01T13:12:32;92794.75;;;21.23
69420;BMP280;56612;52.030;113.524;2022-09-01T13:15:37;92800.47;;;21.14
69420;BMP280;56612;52.030;113.524;2022-09-01T13:18:42;92808.31;;;21.04
69420;BMP280;56612;52.030;113.524;2022-09-01T13:22:05;92821.88;;;20.83
69420;BMP280;56612;52.030;113.524;2022-09-01T13:25:15;92819.66;;;20.67
69420;BMP280;56612;52.030;113.524;2022-09-01T13:28:20;92824.22;;;20.52
69420;BMP280;56612;52.030;113.524;2022-09-01T13:31:32;92827.13;;;20.46
69420;BMP280;56612;52.030;113.524;2022-09-01T13:34:37;92835.50;;;20.37
69420;BMP280;56612;52.030;113.524;2022-09-01T13:37:42;92838.44;;;20.31
69420;BMP280;56612;52.030;113.524;2022-09-01T13:40:48;92840.63;;;20.25
69420;BMP280;56612;52.030;113.524;2022-09-01T13:43:52;92841.66;;;20.13
69420;BMP280;56612;52.030;113.524;2022-09-01T13:46:56;92852.09;;;20.05
69420;BMP280;56612;52.030;113.524;2022-09-01T13:50:02;92853.66;;;19.97
69420;BMP280;56612;52.030;113.524;2022-09-01T13:53:09;92856.66;;;19.87
69420;BMP280;56612;52.030;113.524;2022-09-01T13:56:14;92875.03;;;19.85
69420;BMP280;56612;52.030;113.524;2022-09-01T13:59:17;92861.63;;;19.79
69420;BMP280;56612;52.030;113.524;2022-09-01T14:02:22;92874.09;;;19.70
69420;BMP280;56612;52.030;113.524;2022-09-01T14:05:30;92870.78;;;19.67
69420;BMP280;56612;52.030;113.524;2022-09-01T14:08:35;92866.16;;;19.62
69420;BMP280;56612;52.030;113.524;2022-09-01T14:11:39;92870.91;;;19.61
69420;BMP280;56612;52.030;113.524;2022-09-01T14:14:43;92861.41;;;19.62
69420;BMP280;56612;52.030;113.524;2022-09-01T14:18:06;92865.50;;;19.61
69420;BMP280;56612;52.030;113.524;2022-09-01T14:21:14;92867.53;;;19.60
69420;BMP280;56612;52.030;113.524;2022-09-01T14:24:19;92868.28;;;19.59
69420;BMP280;56612;52.030;113.524;2022-09-01T14:27:23;92865.63;;;19.57
69420;BMP280;56612;52.030;113.524;2022-09-01T14:30:28;92873.03;;;19.58
69420;BMP280;56612;52.030;113.524;2022-09-01T14:33:34;92869.75;;;19.54
69420;BMP280;56612;52.030;113.524;2022-09-01T14:36:39;92868.00;;;19.44
69420;BMP280;56612;52.030;113.524;2022-09-01T14:39:55;92871.91;;;19.49
69420;BMP280;56612;52.030;113.524;2022-09-01T14:42:59;92886.84;;;19.48
69420;BMP280;56612;52.030;113.524;2022-09-01T14:46:05;92871.38;;;19.45
69420;BMP280;56612;52.030;113.524;2022-09-01T14:49:13;92871.56;;;19.37
69420;BMP280;56612;52.030;113.524;2022-09-01T14:52:23;92879.84;;;19.31
69420;BMP280;56612;52.030;113.524;2022-09-01T14:55:28;92876.59;;;19.26
69420;BMP280;56612;52.030;113.524;2022-09-01T14:58:32;92878.75;;;19.19
69420;BMP280;56612;52.030;113.524;2022-09-01T15:01:36;92882.19;;;19.18
69420;BMP280;56612;52.030;113.524;2022-09-01T15:04:39;92875.50;;;19.15
69420;BMP280;56612;52.030;113.524;2022-09-01T15:07:44;92878.03;;;19.21
69420;BMP280;56612;52.030;113.524;2022-09-01T15:10:48;92874.78;;;19.16
69420;BMP280;56612;52.030;113.524;2022-09-01T15:13:52;92879.59;;;19.14
69420;BMP280;56612;52.030;113.524;2022-09-01T15:16:56;92873.53;;;19.11
69420;BMP280;56612;52.030;113.524;2022-09-01T15:20:00;92877.56;;;19.12
69420;BMP280;56612;52.030;113.524;2022-09-01T15:23:25;92874.31;;;19.08
69420;BMP280;56612;52.030;113.524;2022-09-01T15:26:29;92877.03;;;19.08
69420;BMP280;56612;52.030;113.524;2022-09-01T15:29:34;92879.72;;;19.08
69420;BMP280;56612;52.030;113.524;2022-09-01T15:32:50;92890.63;;;19.06
69420;BMP280;56612;52.030;113.524;2022-09-01T15:35:54;92881.94;;;19.01
69420;BMP280;56612;52.030;113.524;2022-09-01T15:38:58;92884.06;;;18.97
69420;BMP280;56612;52.030;113.524;2022-09-01T15:42:02;92884.97;;;18.87
69420;BMP280;56612;52.030;113.524;2022-09-01T15:45:13;92893.13;;;18.85
69420;BMP280;56612;52.030;113.524;2022-09-01T15:48:17;92893.56;;;18.67
69420;BMP280;56612;52.030;113.524;2022-09-01T15:54:25;92891.13;;;18.55
69420;BMP280;56612;52.030;113.524;2022-09-01T15:57:32;92891.16;;;18.53
69420;BMP280;56612;52.030;113.524;2022-09-01T16:00:40;92890.53;;;18.50
69420;BMP280;56612;52.030;113.524;2022-09-01T16:03:44;92889.16;;;18.51
69420;BMP280;56612;52.030;113.524;2022-09-01T16:06:49;92890.56;;;18.48
69420;BMP280;56612;52.030;113.524;2022-09-01T16:09:53;92887.19;;;18.48
69420;BMP280;56612;52.030;113.524;2022-09-01T16:13:00;92893.41;;;18.42
69420;BMP280;56612;52.030;113.524;2022-09-01T16:23:13;92894.81;;;18.39
69420;BMP280;56612;52.030;113.524;2022-09-01T16:26:20;92902.94;;;18.39
69420;BMP280;56612;52.030;113.524;2022-09-01T16:29:44;92900.34;;;18.35
69420;BMP280;56612;52.030;113.524;2022-09-01T16:32:50;92896.50;;;18.24
69420;BMP280;56612;52.030;113.524;2022-09-01T16:40:28;92894.34;;;18.30
69420;BMP280;56612;52.030;113.524;2022-09-01T16:43:17;92901.81;;;18.28
69420;BMP280;56612;52.030;113.524;2022-09-01T16:46:42;92901.81;;;18.28
69420;BMP280;56612;52.030;113.524;2022-09-01T16:59:52;92902.44;;;17.97
69420;BMP280;56612;52.030;113.524;2022-09-01T17:03:11;92901.94;;;17.89
69420;BMP280;56612;52.030;113.524;2022-09-01T17:06:46;92907.41;;;17.85
69420;BMP280;56612;52.030;113.524;2022-09-01T17:10:34;92898.03;;;17.80
69420;BMP280;56612;52.030;113.524;2022-09-01T17:13:49;92893.47;;;17.72
69420;BMP280;56612;52.030;113.524;2022-09-01T17:17:06;92898.19;;;17.72
69420;BMP280;56612;52.030;113.524;2022-09-01T17:20:12;92892.19;;;17.69
69420;BMP280;56612;52.030;113.524;2022-09-01T17:23:21;92894.81;;;17.71
69420;BMP280;56612;52.030;113.524;2022-09-01T17:26:30;92897.44;;;17.75
69420;BMP280;56612;52.030;113.524;2022-09-01T17:29:41;92897.41;;;17.79
69420;BMP280;56612;52.030;113.524;2022-09-01T17:42:57;92910.16;;;17.83
69420;BMP280;56612;52.030;113.524;2022-09-01T18:00:05;92898.66;;;17.84
69420;BMP280;56612;52.030;113.524;2022-09-01T18:10:08;92901.34;;;17.84
69420;BMP280;56612;52.030;113.524;2022-09-01T18:14:01;92900.00;;;17.83
69420;BMP280;56612;52.030;113.524;2022-09-01T18:17:18;92900.13;;;17.75
69420;BMP280;56612;52.030;113.524;2022-09-01T18:20:44;92900.78;;;17.78
69420;BMP280;56612;52.030;113.524;2022-09-01T18:23:51;92892.03;;;17.75
69420;BMP280;56612;52.030;113.524;2022-09-01T18:26:57;92896.06;;;17.76
69420;BMP280;56612;52.030;113.524;2022-09-01T18:30:01;92893.38;;;17.76
69420;BMP280;56612;52.030;113.524;2022-09-01T18:33:27;92892.63;;;17.80
69420;BMP280;56612;52.030;113.524;2022-09-01T18:36:58;92897.22;;;17.87
69420;BMP280;56612;52.030;113.524;2022-09-01T18:40:20;92897.88;;;17.88
69420;BMP280;56612;52.030;113.524;2022-09-01T18:43:47;92903.91;;;17.92
69420;BMP280;56612;52.030;113.524;2022-09-01T18:53:50;92889.09;;;17.89
69420;BMP280;56612;52.030;113.524;2022-09-01T18:57:04;92894.63;;;17.81
69420;BMP280;56612;52.030;113.524;2022-09-01T19:00:14;92887.88;;;17.82
69420;BMP280;56612;52.030;113.524;2022-09-01T19:03:52;92900.63;;;17.86
69420;BMP280;56612;52.030;113.524;2022-09-01T19:07:30;92892.59;;;17.82
69420;BMP280;56612;52.030;113.524;2022-09-01T19:10:48;92897.53;;;17.71
69420;BMP280;56612;52.030;113.524;2022-09-01T19:14:19;92891.50;;;17.68
69420;BMP280;56612;52.030;113.524;2022-09-01T19:21:02;92900.59;;;17.51
69420;BMP280;56612;52.030;113.524;2022-09-01T19:24:42;92895.25;;;17.47
69420;BMP280;56612;52.030;113.524;2022-09-01T19:27:57;92902.16;;;17.40
69420;BMP280;56612;52.030;113.524;2022-09-01T19:31:13;92901.47;;;17.39